LIRQLIPE

Guest
Details From LIRQ - Firenze
To LIPE - BOLOGNA
Flight Number -
Tags generated
Created
Modified
Stats Distance 44 nm / 81 km
Max Altitude 0 ft / 0 m
Waypoints 2
Social Downloads 2
Likes 0
Share VATSIM

Download

Looking for another format? Having issues loading an existing format? Contact us
Advertisement - Login to hide

Notes

Basic altitude profile: - Ascent Rate: 2500ft/min - Ascent Speed: 250kts - Cruise Altitude: 35000ft - Cruise Speed: 420kts - Descent Rate: 1500ft/min - Descent Speed: 250kts Options: - Use NATs: yes - Use PACOTS: yes - Use low airways: no - Use high airways: no

Route

LIRQ LIPE

ID Type Via Altitude (ft/m) Position (lat/lon) Dist (leg/tot) Name
O LIRQ APT - 0 / 0 43.80998 / 11.20512 - / 0 nm Firenze
O LIPE APT - 0 / 0 44.53545 / 11.28866 43 / 43 nm BOLOGNA

Altitude Profile

Advertisement - Login to hide

LIRQ

Details ICAO LIRQ (FLR)
Name Firenze
Region Italy
Timezone Europe/Rome (UTC+1.0)
Stats Elevation 142 ft / 43 m (AMSL)
Location 43.810000° 11.205100°
Runways 1
Magnetic Variation 2.986° E

METAR

LIRQ 170850Z 32009KT 290V010 9999 FEW040 BKN080 06/01 Q1017

Decode

TAF

TAF LIRQ 170500Z 1706/1806 04008KT 6000 SCT030 TEMPO 1706/1712 4000 RA

Decode

Departure Runways

ID Width Length Bearing (true/mag) Surface Threshold Overrun Markings Lighting
05 98 ft / 30 m 5,133 ft / 1,565 m 48.11° / 45.13° ASPHALT 344 ft / 105 m 0 ft / 0 m PREC-APP EDGE THRESHOLD SSALF REIL-OMNI
23 98 ft / 30 m 5,133 ft / 1,565 m 228.12° / 225.14° ASPHALT 1,909 ft / 582 m 0 ft / 0 m PREC-APP EDGE THRESHOLD REIL-OMNI

LIPE

Details ICAO LIPE (BLQ)
Name Bologna
Region Italy
Timezone Europe/Rome (UTC+1.0)
Stats Elevation 123 ft / 37 m (AMSL)
Location 44.535600° 11.288300°
Runways 1
Magnetic Variation 3.031° E

METAR

LIPE 170850Z 28009KT 2500 -SG BR BKN005 BKN015 01/00 Q1020

Decode

TAF

TAF LIPE 170500Z 1706/1806 VRB05KT 1200 SN BKN005 BKN030 TEMPO 1706/1708 0600 FG BECMG 1710/1713 4000 BR NSW SCT020 TEMPO 1722/1806 0800 FG

Decode

Destination Runways

ID Width Length Bearing (true/mag) Surface Threshold Overrun Markings Lighting
12 148 ft / 45 m 9,205 ft / 2,806 m 116.78° / 113.75° ASPHALT 1,017 ft / 310 m 0 ft / 0 m PREC-APP CENTERLINE EDGE THRESHOLD ALSF-I TDZ REIL-OMNI
30 148 ft / 45 m 9,205 ft / 2,806 m 296.81° / 293.78° ASPHALT 1,194 ft / 364 m 174 ft / 53 m APP CENTERLINE EDGE THRESHOLD SALS REIL-OMNI

Approach Navaids

Runway Type Ident Frequency Range Bearing (true/mag) Slope Elevation
12 DME BLN 108.90 MHz 18 nm / 33 km - - 131 ft / 40 m (AMSL)
12 LOC-ILS BLN 108.90 MHz 18 nm / 33 km 116.81° / 113.78 ° - 123 ft / 37 m (AMSL)
12 GS BLN 108.90 MHz 10 nm / 19 km 117.59° / 114.56 ° 3.00° 120 ft / 37 m (AMSL)
12 OM OM - - 116.80° / 113.77 ° - 123 ft / 37 m (AMSL)
30 DME IBBP 109.75 MHz 18 nm / 33 km - - 123 ft / 37 m (AMSL)
30 LOC-ILS IBBP 109.75 MHz 18 nm / 33 km 296.66° / 293.63 ° - 123 ft / 37 m (AMSL)
30 GS IBBP 109.75 MHz 10 nm / 19 km 297.75° / 294.72 ° 3.50° 123 ft / 37 m (AMSL)

Popular Alternatives